sensor_id;sensor_type;location;lat;lon;timestamp;P1;durP1;ratioP1;P2;durP2;ratioP2
15693;SDS011;7947;48.834;9.132;2022-10-16T00:02:02;1.42;;;1.00;;
15693;SDS011;7947;48.834;9.132;2022-10-16T00:05:07;1.00;;;0.70;;
15693;SDS011;7947;48.834;9.132;2022-10-16T00:08:12;0.75;;;0.60;;
15693;SDS011;7947;48.834;9.132;2022-10-16T00:11:19;0.55;;;0.55;;
15693;SDS011;7947;48.834;9.132;2022-10-16T00:14:26;0.93;;;0.75;;
15693;SDS011;7947;48.834;9.132;2022-10-16T00:17:30;0.50;;;0.50;;
15693;SDS011;7947;48.834;9.132;2022-10-16T00:20:36;1.02;;;0.70;;
15693;SDS011;7947;48.834;9.132;2022-10-16T00:23:41;0.70;;;0.60;;
15693;SDS011;7947;48.834;9.132;2022-10-16T00:26:49;0.70;;;0.55;;
15693;SDS011;7947;48.834;9.132;2022-10-16T00:29:54;0.50;;;0.50;;
15693;SDS011;7947;48.834;9.132;2022-10-16T00:32:59;2.47;;;0.73;;
15693;SDS011;7947;48.834;9.132;2022-10-16T00:36:05;0.75;;;0.70;;
15693;SDS011;7947;48.834;9.132;2022-10-16T00:39:10;1.75;;;0.77;;
15693;SDS011;7947;48.834;9.132;2022-10-16T00:42:17;0.60;;;0.60;;
15693;SDS011;7947;48.834;9.132;2022-10-16T00:45:23;0.52;;;0.40;;
15693;SDS011;7947;48.834;9.132;2022-10-16T00:48:27;1.00;;;0.80;;
15693;SDS011;7947;48.834;9.132;2022-10-16T00:51:34;0.57;;;0.52;;
15693;SDS011;7947;48.834;9.132;2022-10-16T00:54:39;1.10;;;0.80;;
15693;SDS011;7947;48.834;9.132;2022-10-16T00:57:48;1.23;;;0.75;;
15693;SDS011;7947;48.834;9.132;2022-10-16T01:00:55;0.88;;;0.88;;
15693;SDS011;7947;48.834;9.132;2022-10-16T01:04:00;2.83;;;0.77;;
15693;SDS011;7947;48.834;9.132;2022-10-16T01:07:09;0.80;;;0.80;;
15693;SDS011;7947;48.834;9.132;2022-10-16T01:10:21;0.70;;;0.60;;
15693;SDS011;7947;48.834;9.132;2022-10-16T01:13:33;1.13;;;0.80;;
15693;SDS011;7947;48.834;9.132;2022-10-16T01:16:45;0.70;;;0.70;;
15693;SDS011;7947;48.834;9.132;2022-10-16T01:20:00;0.60;;;0.50;;
15693;SDS011;7947;48.834;9.132;2022-10-16T01:23:15;1.95;;;0.85;;
15693;SDS011;7947;48.834;9.132;2022-10-16T01:26:33;1.90;;;1.10;;
15693;SDS011;7947;48.834;9.132;2022-10-16T01:29:50;1.60;;;0.80;;
15693;SDS011;7947;48.834;9.132;2022-10-16T01:32:58;0.70;;;0.70;;
15693;SDS011;7947;48.834;9.132;2022-10-16T01:36:10;0.73;;;0.70;;
15693;SDS011;7947;48.834;9.132;2022-10-16T01:39:21;1.20;;;0.80;;
15693;SDS011;7947;48.834;9.132;2022-10-16T01:42:34;2.35;;;0.75;;
15693;SDS011;7947;48.834;9.132;2022-10-16T01:45:43;1.00;;;0.80;;
15693;SDS011;7947;48.834;9.132;2022-10-16T01:48:50;0.73;;;0.70;;
15693;SDS011;7947;48.834;9.132;2022-10-16T01:51:56;1.27;;;0.80;;
15693;SDS011;7947;48.834;9.132;2022-10-16T01:55:05;1.20;;;0.90;;
15693;SDS011;7947;48.834;9.132;2022-10-16T01:58:12;1.00;;;0.60;;
15693;SDS011;7947;48.834;9.132;2022-10-16T02:01:19;1.15;;;0.70;;
15693;SDS011;7947;48.834;9.132;2022-10-16T02:04:28;0.80;;;0.70;;
15693;SDS011;7947;48.834;9.132;2022-10-16T02:07:36;0.70;;;0.57;;
15693;SDS011;7947;48.834;9.132;2022-10-16T02:10:43;0.90;;;0.70;;
15693;SDS011;7947;48.834;9.132;2022-10-16T02:13:48;1.13;;;0.90;;
15693;SDS011;7947;48.834;9.132;2022-10-16T02:16:58;0.98;;;0.75;;
15693;SDS011;7947;48.834;9.132;2022-10-16T02:20:05;2.40;;;0.75;;
15693;SDS011;7947;48.834;9.132;2022-10-16T02:23:11;0.60;;;0.60;;
15693;SDS011;7947;48.834;9.132;2022-10-16T02:26:22;1.73;;;1.08;;
15693;SDS011;7947;48.834;9.132;2022-10-16T02:29:32;0.60;;;0.60;;
15693;SDS011;7947;48.834;9.132;2022-10-16T02:32:44;0.70;;;0.68;;
15693;SDS011;7947;48.834;9.132;2022-10-16T02:35:51;1.42;;;0.80;;
15693;SDS011;7947;48.834;9.132;2022-10-16T02:38:58;1.05;;;0.70;;
15693;SDS011;7947;48.834;9.132;2022-10-16T02:42:04;1.73;;;1.10;;
15693;SDS011;7947;48.834;9.132;2022-10-16T02:45:10;0.70;;;0.55;;
15693;SDS011;7947;48.834;9.132;2022-10-16T02:48:16;1.15;;;1.00;;
15693;SDS011;7947;48.834;9.132;2022-10-16T02:51:22;1.27;;;0.90;;
15693;SDS011;7947;48.834;9.132;2022-10-16T02:54:27;1.00;;;0.68;;
15693;SDS011;7947;48.834;9.132;2022-10-16T02:57:32;0.80;;;0.80;;
15693;SDS011;7947;48.834;9.132;2022-10-16T03:00:39;0.80;;;0.80;;
15693;SDS011;7947;48.834;9.132;2022-10-16T03:03:47;4.80;;;0.85;;
15693;SDS011;7947;48.834;9.132;2022-10-16T03:06:52;1.10;;;0.68;;
15693;SDS011;7947;48.834;9.132;2022-10-16T03:09:57;1.73;;;1.30;;
15693;SDS011;7947;48.834;9.132;2022-10-16T03:13:02;0.70;;;0.70;;
15693;SDS011;7947;48.834;9.132;2022-10-16T03:16:08;1.38;;;0.88;;
15693;SDS011;7947;48.834;9.132;2022-10-16T03:19:15;0.73;;;0.73;;
15693;SDS011;7947;48.834;9.132;2022-10-16T03:22:20;0.82;;;0.70;;
15693;SDS011;7947;48.834;9.132;2022-10-16T03:25:25;1.08;;;0.80;;
15693;SDS011;7947;48.834;9.132;2022-10-16T03:28:30;0.73;;;0.60;;
15693;SDS011;7947;48.834;9.132;2022-10-16T03:31:35;1.60;;;1.30;;
15693;SDS011;7947;48.834;9.132;2022-10-16T03:34:42;1.40;;;0.70;;
15693;SDS011;7947;48.834;9.132;2022-10-16T03:37:47;1.10;;;0.98;;
15693;SDS011;7947;48.834;9.132;2022-10-16T03:40:52;0.77;;;0.70;;
15693;SDS011;7947;48.834;9.132;2022-10-16T03:43:58;0.65;;;0.65;;
15693;SDS011;7947;48.834;9.132;2022-10-16T03:47:01;0.80;;;0.77;;
15693;SDS011;7947;48.834;9.132;2022-10-16T03:50:06;0.93;;;0.80;;
15693;SDS011;7947;48.834;9.132;2022-10-16T03:53:13;1.20;;;0.90;;
15693;SDS011;7947;48.834;9.132;2022-10-16T03:56:16;3.15;;;0.68;;
15693;SDS011;7947;48.834;9.132;2022-10-16T03:59:19;1.98;;;0.80;;
15693;SDS011;7947;48.834;9.132;2022-10-16T04:02:22;0.70;;;0.70;;
15693;SDS011;7947;48.834;9.132;2022-10-16T04:05:26;0.75;;;0.75;;
15693;SDS011;7947;48.834;9.132;2022-10-16T04:08:29;1.15;;;0.77;;
15693;SDS011;7947;48.834;9.132;2022-10-16T04:11:31;0.70;;;0.70;;
15693;SDS011;7947;48.834;9.132;2022-10-16T04:14:34;0.70;;;0.70;;
15693;SDS011;7947;48.834;9.132;2022-10-16T04:17:37;1.52;;;0.95;;
15693;SDS011;7947;48.834;9.132;2022-10-16T04:20:41;1.85;;;1.00;;
15693;SDS011;7947;48.834;9.132;2022-10-16T04:23:44;0.88;;;0.80;;
15693;SDS011;7947;48.834;9.132;2022-10-16T04:26:47;0.88;;;0.70;;
15693;SDS011;7947;48.834;9.132;2022-10-16T04:29:49;0.93;;;0.80;;
15693;SDS011;7947;48.834;9.132;2022-10-16T04:32:52;0.63;;;0.63;;
15693;SDS011;7947;48.834;9.132;2022-10-16T04:36:00;0.60;;;0.52;;
15693;SDS011;7947;48.834;9.132;2022-10-16T04:39:03;1.17;;;0.80;;
15693;SDS011;7947;48.834;9.132;2022-10-16T04:42:06;1.83;;;1.10;;
15693;SDS011;7947;48.834;9.132;2022-10-16T04:45:09;1.00;;;0.88;;
15693;SDS011;7947;48.834;9.132;2022-10-16T04:48:17;2.25;;;1.00;;
15693;SDS011;7947;48.834;9.132;2022-10-16T04:51:21;2.47;;;0.93;;
15693;SDS011;7947;48.834;9.132;2022-10-16T04:54:24;1.00;;;0.90;;
15693;SDS011;7947;48.834;9.132;2022-10-16T04:57:27;0.73;;;0.60;;
15693;SDS011;7947;48.834;9.132;2022-10-16T05:00:30;1.10;;;0.77;;
15693;SDS011;7947;48.834;9.132;2022-10-16T05:03:32;0.70;;;0.70;;
15693;SDS011;7947;48.834;9.132;2022-10-16T05:06:36;1.38;;;1.10;;
15693;SDS011;7947;48.834;9.132;2022-10-16T05:09:40;1.05;;;0.93;;
15693;SDS011;7947;48.834;9.132;2022-10-16T05:12:43;0.60;;;0.60;;
15693;SDS011;7947;48.834;9.132;2022-10-16T05:15:46;1.02;;;0.88;;
15693;SDS011;7947;48.834;9.132;2022-10-16T05:18:49;2.10;;;1.13;;
15693;SDS011;7947;48.834;9.132;2022-10-16T05:22:06;0.85;;;0.85;;
15693;SDS011;7947;48.834;9.132;2022-10-16T05:25:08;0.80;;;0.80;;
15693;SDS011;7947;48.834;9.132;2022-10-16T05:28:11;0.85;;;0.85;;
15693;SDS011;7947;48.834;9.132;2022-10-16T05:31:14;0.95;;;0.93;;
15693;SDS011;7947;48.834;9.132;2022-10-16T05:34:16;1.42;;;1.00;;
15693;SDS011;7947;48.834;9.132;2022-10-16T05:37:20;0.98;;;0.82;;
15693;SDS011;7947;48.834;9.132;2022-10-16T05:40:24;0.68;;;0.60;;
15693;SDS011;7947;48.834;9.132;2022-10-16T05:43:26;1.80;;;0.70;;
15693;SDS011;7947;48.834;9.132;2022-10-16T05:46:30;3.50;;;1.10;;
15693;SDS011;7947;48.834;9.132;2022-10-16T05:49:32;1.83;;;1.10;;
15693;SDS011;7947;48.834;9.132;2022-10-16T05:52:42;1.20;;;1.00;;
15693;SDS011;7947;48.834;9.132;2022-10-16T05:55:47;0.90;;;0.88;;
15693;SDS011;7947;48.834;9.132;2022-10-16T05:58:54;1.55;;;0.80;;
15693;SDS011;7947;48.834;9.132;2022-10-16T06:01:57;0.73;;;0.63;;
15693;SDS011;7947;48.834;9.132;2022-10-16T06:05:00;2.92;;;0.88;;
15693;SDS011;7947;48.834;9.132;2022-10-16T06:08:04;1.55;;;0.80;;
15693;SDS011;7947;48.834;9.132;2022-10-16T06:11:07;1.50;;;0.77;;
15693;SDS011;7947;48.834;9.132;2022-10-16T06:14:11;1.45;;;1.00;;
15693;SDS011;7947;48.834;9.132;2022-10-16T06:17:14;0.70;;;0.70;;
15693;SDS011;7947;48.834;9.132;2022-10-16T06:20:17;0.90;;;0.85;;
15693;SDS011;7947;48.834;9.132;2022-10-16T06:23:21;1.52;;;0.73;;
15693;SDS011;7947;48.834;9.132;2022-10-16T06:26:25;2.55;;;1.00;;
15693;SDS011;7947;48.834;9.132;2022-10-16T06:29:28;1.55;;;1.02;;
15693;SDS011;7947;48.834;9.132;2022-10-16T06:32:31;1.27;;;1.08;;
15693;SDS011;7947;48.834;9.132;2022-10-16T06:35:33;1.42;;;1.10;;
15693;SDS011;7947;48.834;9.132;2022-10-16T06:38:38;1.50;;;0.80;;
15693;SDS011;7947;48.834;9.132;2022-10-16T06:41:41;1.85;;;0.82;;
15693;SDS011;7947;48.834;9.132;2022-10-16T06:44:43;1.10;;;1.00;;
15693;SDS011;7947;48.834;9.132;2022-10-16T06:47:46;1.98;;;1.25;;
15693;SDS011;7947;48.834;9.132;2022-10-16T06:50:56;1.73;;;1.42;;
15693;SDS011;7947;48.834;9.132;2022-10-16T06:54:01;1.23;;;1.08;;
15693;SDS011;7947;48.834;9.132;2022-10-16T06:57:04;1.75;;;0.88;;
15693;SDS011;7947;48.834;9.132;2022-10-16T07:00:07;1.70;;;0.90;;
15693;SDS011;7947;48.834;9.132;2022-10-16T07:03:10;1.23;;;0.82;;
15693;SDS011;7947;48.834;9.132;2022-10-16T07:06:14;0.98;;;0.90;;
15693;SDS011;7947;48.834;9.132;2022-10-16T07:09:19;2.40;;;1.08;;
15693;SDS011;7947;48.834;9.132;2022-10-16T07:12:22;1.88;;;0.98;;
15693;SDS011;7947;48.834;9.132;2022-10-16T07:15:25;1.00;;;0.90;;
15693;SDS011;7947;48.834;9.132;2022-10-16T07:18:28;1.25;;;1.10;;
15693;SDS011;7947;48.834;9.132;2022-10-16T07:21:33;1.35;;;1.00;;
15693;SDS011;7947;48.834;9.132;2022-10-16T07:24:40;0.82;;;0.77;;
15693;SDS011;7947;48.834;9.132;2022-10-16T07:27:43;3.05;;;1.10;;
15693;SDS011;7947;48.834;9.132;2022-10-16T07:30:45;1.73;;;1.00;;
15693;SDS011;7947;48.834;9.132;2022-10-16T07:33:48;1.17;;;0.90;;
15693;SDS011;7947;48.834;9.132;2022-10-16T07:36:51;1.25;;;0.82;;
15693;SDS011;7947;48.834;9.132;2022-10-16T07:39:55;2.17;;;1.13;;
15693;SDS011;7947;48.834;9.132;2022-10-16T07:42:58;1.65;;;0.77;;
15693;SDS011;7947;48.834;9.132;2022-10-16T07:46:03;1.52;;;0.90;;
15693;SDS011;7947;48.834;9.132;2022-10-16T07:49:07;1.08;;;0.98;;
15693;SDS011;7947;48.834;9.132;2022-10-16T07:52:11;1.70;;;1.30;;
15693;SDS011;7947;48.834;9.132;2022-10-16T07:55:15;1.90;;;0.90;;
15693;SDS011;7947;48.834;9.132;2022-10-16T07:58:17;1.10;;;1.00;;
15693;SDS011;7947;48.834;9.132;2022-10-16T08:01:20;1.58;;;1.10;;
15693;SDS011;7947;48.834;9.132;2022-10-16T08:04:23;2.33;;;0.95;;
15693;SDS011;7947;48.834;9.132;2022-10-16T08:07:26;1.50;;;1.10;;
15693;SDS011;7947;48.834;9.132;2022-10-16T08:10:30;1.33;;;1.00;;
15693;SDS011;7947;48.834;9.132;2022-10-16T08:13:33;1.95;;;1.10;;
15693;SDS011;7947;48.834;9.132;2022-10-16T08:16:36;1.63;;;0.93;;
15693;SDS011;7947;48.834;9.132;2022-10-16T08:19:38;2.10;;;1.90;;
15693;SDS011;7947;48.834;9.132;2022-10-16T08:22:41;1.88;;;1.08;;
15693;SDS011;7947;48.834;9.132;2022-10-16T08:25:45;1.73;;;1.05;;
15693;SDS011;7947;48.834;9.132;2022-10-16T08:28:49;1.00;;;0.70;;
15693;SDS011;7947;48.834;9.132;2022-10-16T08:31:52;1.33;;;0.90;;
15693;SDS011;7947;48.834;9.132;2022-10-16T08:34:54;1.15;;;1.00;;
15693;SDS011;7947;48.834;9.132;2022-10-16T08:37:57;2.13;;;1.00;;
15693;SDS011;7947;48.834;9.132;2022-10-16T08:41:08;1.10;;;0.93;;
15693;SDS011;7947;48.834;9.132;2022-10-16T08:44:28;2.38;;;1.35;;
15693;SDS011;7947;48.834;9.132;2022-10-16T08:47:44;2.92;;;1.02;;
15693;SDS011;7947;48.834;9.132;2022-10-16T08:50:51;1.20;;;0.90;;
15693;SDS011;7947;48.834;9.132;2022-10-16T08:53:56;2.10;;;1.00;;
15693;SDS011;7947;48.834;9.132;2022-10-16T08:57:06;1.38;;;0.98;;
15693;SDS011;7947;48.834;9.132;2022-10-16T09:00:12;1.17;;;0.80;;
15693;SDS011;7947;48.834;9.132;2022-10-16T09:03:17;0.98;;;0.82;;
15693;SDS011;7947;48.834;9.132;2022-10-16T09:06:35;1.40;;;0.95;;
15693;SDS011;7947;48.834;9.132;2022-10-16T09:09:59;0.90;;;0.80;;
15693;SDS011;7947;48.834;9.132;2022-10-16T09:13:20;0.60;;;0.60;;
15693;SDS011;7947;48.834;9.132;2022-10-16T09:16:29;0.82;;;0.70;;
15693;SDS011;7947;48.834;9.132;2022-10-16T09:19:36;1.15;;;0.85;;
15693;SDS011;7947;48.834;9.132;2022-10-16T09:22:44;1.65;;;0.73;;
15693;SDS011;7947;48.834;9.132;2022-10-16T09:25:47;1.10;;;0.88;;
15693;SDS011;7947;48.834;9.132;2022-10-16T09:28:53;1.00;;;0.90;;
15693;SDS011;7947;48.834;9.132;2022-10-16T09:32:10;1.70;;;0.90;;
15693;SDS011;7947;48.834;9.132;2022-10-16T09:35:15;0.50;;;0.50;;
15693;SDS011;7947;48.834;9.132;2022-10-16T09:38:21;0.63;;;0.63;;
15693;SDS011;7947;48.834;9.132;2022-10-16T09:41:26;0.82;;;0.70;;
15693;SDS011;7947;48.834;9.132;2022-10-16T09:44:30;1.13;;;1.02;;
15693;SDS011;7947;48.834;9.132;2022-10-16T09:47:35;0.95;;;0.75;;
15693;SDS011;7947;48.834;9.132;2022-10-16T09:50:41;1.25;;;0.80;;
15693;SDS011;7947;48.834;9.132;2022-10-16T09:53:45;1.48;;;0.80;;
15693;SDS011;7947;48.834;9.132;2022-10-16T09:56:48;0.88;;;0.80;;
15693;SDS011;7947;48.834;9.132;2022-10-16T09:59:54;1.52;;;1.10;;
15693;SDS011;7947;48.834;9.132;2022-10-16T10:02:59;1.15;;;1.05;;
15693;SDS011;7947;48.834;9.132;2022-10-16T10:06:05;1.13;;;0.90;;
15693;SDS011;7947;48.834;9.132;2022-10-16T10:09:19;1.35;;;0.90;;
15693;SDS011;7947;48.834;9.132;2022-10-16T10:12:24;1.00;;;0.75;;
15693;SDS011;7947;48.834;9.132;2022-10-16T10:15:29;0.77;;;0.75;;
15693;SDS011;7947;48.834;9.132;2022-10-16T10:18:36;1.02;;;0.82;;
15693;SDS011;7947;48.834;9.132;2022-10-16T10:21:39;1.13;;;0.88;;
15693;SDS011;7947;48.834;9.132;2022-10-16T10:24:42;1.50;;;1.10;;
15693;SDS011;7947;48.834;9.132;2022-10-16T10:27:53;1.50;;;0.95;;
15693;SDS011;7947;48.834;9.132;2022-10-16T10:31:16;2.90;;;1.00;;
15693;SDS011;7947;48.834;9.132;2022-10-16T10:34:30;1.20;;;0.80;;
15693;SDS011;7947;48.834;9.132;2022-10-16T10:37:46;1.38;;;1.10;;
15693;SDS011;7947;48.834;9.132;2022-10-16T10:41:00;0.85;;;0.80;;
15693;SDS011;7947;48.834;9.132;2022-10-16T10:44:21;0.73;;;0.73;;
15693;SDS011;7947;48.834;9.132;2022-10-16T10:47:37;2.15;;;0.70;;
15693;SDS011;7947;48.834;9.132;2022-10-16T10:50:47;1.88;;;0.85;;
15693;SDS011;7947;48.834;9.132;2022-10-16T10:53:55;0.70;;;0.52;;
15693;SDS011;7947;48.834;9.132;2022-10-16T10:57:08;0.90;;;0.75;;
15693;SDS011;7947;48.834;9.132;2022-10-16T11:00:19;2.75;;;0.80;;
15693;SDS011;7947;48.834;9.132;2022-10-16T11:03:30;1.02;;;0.80;;
15693;SDS011;7947;48.834;9.132;2022-10-16T11:06:45;1.23;;;0.90;;
15693;SDS011;7947;48.834;9.132;2022-10-16T11:09:51;0.98;;;0.88;;
15693;SDS011;7947;48.834;9.132;2022-10-16T11:12:58;1.00;;;0.90;;
15693;SDS011;7947;48.834;9.132;2022-10-16T11:16:13;2.85;;;1.02;;
15693;SDS011;7947;48.834;9.132;2022-10-16T11:19:27;1.13;;;1.02;;
15693;SDS011;7947;48.834;9.132;2022-10-16T11:22:37;2.00;;;1.13;;
15693;SDS011;7947;48.834;9.132;2022-10-16T11:25:44;2.08;;;0.68;;
15693;SDS011;7947;48.834;9.132;2022-10-16T11:28:50;0.68;;;0.63;;
15693;SDS011;7947;48.834;9.132;2022-10-16T11:31:57;0.98;;;0.82;;
15693;SDS011;7947;48.834;9.132;2022-10-16T11:35:05;0.80;;;0.80;;
15693;SDS011;7947;48.834;9.132;2022-10-16T11:38:29;1.13;;;0.70;;
15693;SDS011;7947;48.834;9.132;2022-10-16T11:41:35;0.75;;;0.60;;
15693;SDS011;7947;48.834;9.132;2022-10-16T11:44:46;1.02;;;0.90;;
15693;SDS011;7947;48.834;9.132;2022-10-16T11:47:59;1.27;;;0.90;;
15693;SDS011;7947;48.834;9.132;2022-10-16T11:51:07;0.95;;;0.70;;
15693;SDS011;7947;48.834;9.132;2022-10-16T11:54:15;0.90;;;0.80;;
15693;SDS011;7947;48.834;9.132;2022-10-16T11:57:24;0.85;;;0.80;;
15693;SDS011;7947;48.834;9.132;2022-10-16T12:00:31;1.17;;;1.00;;
15693;SDS011;7947;48.834;9.132;2022-10-16T12:03:41;1.17;;;0.70;;
15693;SDS011;7947;48.834;9.132;2022-10-16T12:06:54;0.88;;;0.80;;
15693;SDS011;7947;48.834;9.132;2022-10-16T12:10:09;0.85;;;0.80;;
15693;SDS011;7947;48.834;9.132;2022-10-16T12:13:28;1.73;;;0.60;;
15693;SDS011;7947;48.834;9.132;2022-10-16T12:16:36;0.60;;;0.52;;
15693;SDS011;7947;48.834;9.132;2022-10-16T12:19:40;0.80;;;0.70;;
15693;SDS011;7947;48.834;9.132;2022-10-16T12:22:48;5.40;;;1.58;;
15693;SDS011;7947;48.834;9.132;2022-10-16T12:25:55;12.68;;;3.17;;
15693;SDS011;7947;48.834;9.132;2022-10-16T12:29:09;5.47;;;1.88;;
15693;SDS011;7947;48.834;9.132;2022-10-16T12:32:23;2.28;;;1.02;;
15693;SDS011;7947;48.834;9.132;2022-10-16T12:35:48;14.48;;;3.20;;
15693;SDS011;7947;48.834;9.132;2022-10-16T12:38:52;2.33;;;1.38;;
15693;SDS011;7947;48.834;9.132;2022-10-16T12:42:02;1.02;;;0.90;;
15693;SDS011;7947;48.834;9.132;2022-10-16T12:45:22;0.70;;;0.70;;
15693;SDS011;7947;48.834;9.132;2022-10-16T12:48:27;2.35;;;0.90;;
15693;SDS011;7947;48.834;9.132;2022-10-16T12:51:48;0.65;;;0.60;;
15693;SDS011;7947;48.834;9.132;2022-10-16T12:54:55;1.48;;;0.90;;
15693;SDS011;7947;48.834;9.132;2022-10-16T12:58:11;0.70;;;0.70;;
15693;SDS011;7947;48.834;9.132;2022-10-16T13:01:28;1.08;;;0.80;;
15693;SDS011;7947;48.834;9.132;2022-10-16T13:04:42;1.27;;;0.90;;
15693;SDS011;7947;48.834;9.132;2022-10-16T13:08:03;0.65;;;0.65;;
15693;SDS011;7947;48.834;9.132;2022-10-16T13:11:22;0.85;;;0.80;;
15693;SDS011;7947;48.834;9.132;2022-10-16T13:14:36;0.63;;;0.63;;
15693;SDS011;7947;48.834;9.132;2022-10-16T13:17:55;1.25;;;0.82;;
15693;SDS011;7947;48.834;9.132;2022-10-16T13:21:17;0.70;;;0.70;;
15693;SDS011;7947;48.834;9.132;2022-10-16T13:24:33;0.90;;;0.80;;
15693;SDS011;7947;48.834;9.132;2022-10-16T13:27:59;1.38;;;0.80;;
15693;SDS011;7947;48.834;9.132;2022-10-16T13:31:10;0.70;;;0.70;;
15693;SDS011;7947;48.834;9.132;2022-10-16T13:34:19;0.60;;;0.60;;
15693;SDS011;7947;48.834;9.132;2022-10-16T13:37:24;1.23;;;0.90;;
15693;SDS011;7947;48.834;9.132;2022-10-16T13:40:29;1.23;;;1.10;;
15693;SDS011;7947;48.834;9.132;2022-10-16T13:43:33;1.13;;;1.02;;
15693;SDS011;7947;48.834;9.132;2022-10-16T13:46:38;1.25;;;0.93;;
15693;SDS011;7947;48.834;9.132;2022-10-16T13:49:42;1.98;;;0.93;;
15693;SDS011;7947;48.834;9.132;2022-10-16T13:52:45;2.95;;;0.98;;
15693;SDS011;7947;48.834;9.132;2022-10-16T13:55:48;2.40;;;1.20;;
15693;SDS011;7947;48.834;9.132;2022-10-16T13:58:59;1.33;;;1.20;;
15693;SDS011;7947;48.834;9.132;2022-10-16T14:02:05;1.02;;;0.82;;
15693;SDS011;7947;48.834;9.132;2022-10-16T14:05:17;1.40;;;1.20;;
15693;SDS011;7947;48.834;9.132;2022-10-16T14:08:20;1.60;;;1.50;;
15693;SDS011;7947;48.834;9.132;2022-10-16T14:11:23;1.45;;;1.30;;
15693;SDS011;7947;48.834;9.132;2022-10-16T14:14:30;1.23;;;1.00;;
15693;SDS011;7947;48.834;9.132;2022-10-16T14:17:36;1.35;;;0.93;;
15693;SDS011;7947;48.834;9.132;2022-10-16T14:20:48;0.88;;;0.73;;
15693;SDS011;7947;48.834;9.132;2022-10-16T14:23:51;1.30;;;0.90;;
15693;SDS011;7947;48.834;9.132;2022-10-16T14:26:55;1.17;;;1.00;;
15693;SDS011;7947;48.834;9.132;2022-10-16T14:30:09;0.98;;;0.82;;
15693;SDS011;7947;48.834;9.132;2022-10-16T14:33:21;1.75;;;1.10;;
15693;SDS011;7947;48.834;9.132;2022-10-16T14:36:26;1.90;;;1.05;;
15693;SDS011;7947;48.834;9.132;2022-10-16T14:39:30;1.45;;;0.95;;
15693;SDS011;7947;48.834;9.132;2022-10-16T14:42:33;1.30;;;1.05;;
15693;SDS011;7947;48.834;9.132;2022-10-16T14:45:38;2.17;;;1.08;;
15693;SDS011;7947;48.834;9.132;2022-10-16T14:48:45;1.00;;;0.90;;
15693;SDS011;7947;48.834;9.132;2022-10-16T14:51:49;1.90;;;1.08;;
15693;SDS011;7947;48.834;9.132;2022-10-16T14:54:53;1.17;;;1.08;;
15693;SDS011;7947;48.834;9.132;2022-10-16T14:57:57;1.20;;;1.00;;
15693;SDS011;7947;48.834;9.132;2022-10-16T15:01:02;1.15;;;1.05;;
15693;SDS011;7947;48.834;9.132;2022-10-16T15:04:08;1.33;;;1.23;;
15693;SDS011;7947;48.834;9.132;2022-10-16T15:07:13;1.58;;;1.08;;
15693;SDS011;7947;48.834;9.132;2022-10-16T15:10:16;1.20;;;1.10;;
15693;SDS011;7947;48.834;9.132;2022-10-16T15:13:20;1.15;;;0.98;;
15693;SDS011;7947;48.834;9.132;2022-10-16T15:16:24;1.35;;;1.23;;
15693;SDS011;7947;48.834;9.132;2022-10-16T15:19:27;1.20;;;1.10;;
15693;SDS011;7947;48.834;9.132;2022-10-16T15:22:29;1.83;;;1.15;;
15693;SDS011;7947;48.834;9.132;2022-10-16T15:25:34;4.47;;;1.20;;
15693;SDS011;7947;48.834;9.132;2022-10-16T15:28:40;1.95;;;1.08;;
15693;SDS011;7947;48.834;9.132;2022-10-16T15:31:44;1.42;;;1.08;;
15693;SDS011;7947;48.834;9.132;2022-10-16T15:34:48;1.20;;;1.00;;
15693;SDS011;7947;48.834;9.132;2022-10-16T15:37:51;1.52;;;1.17;;
15693;SDS011;7947;48.834;9.132;2022-10-16T15:40:54;2.75;;;1.67;;
15693;SDS011;7947;48.834;9.132;2022-10-16T15:43:57;1.10;;;1.00;;
15693;SDS011;7947;48.834;9.132;2022-10-16T15:47:09;3.47;;;1.35;;
15693;SDS011;7947;48.834;9.132;2022-10-16T15:50:16;1.73;;;1.38;;
15693;SDS011;7947;48.834;9.132;2022-10-16T15:53:22;1.30;;;1.20;;
15693;SDS011;7947;48.834;9.132;2022-10-16T15:56:28;2.20;;;1.52;;
15693;SDS011;7947;48.834;9.132;2022-10-16T15:59:36;3.30;;;1.20;;
15693;SDS011;7947;48.834;9.132;2022-10-16T16:02:48;6.22;;;1.40;;
15693;SDS011;7947;48.834;9.132;2022-10-16T16:05:53;1.77;;;1.23;;
15693;SDS011;7947;48.834;9.132;2022-10-16T16:08:57;1.20;;;1.10;;
15693;SDS011;7947;48.834;9.132;2022-10-16T16:12:02;1.73;;;1.25;;
15693;SDS011;7947;48.834;9.132;2022-10-16T16:15:08;1.13;;;0.93;;
15693;SDS011;7947;48.834;9.132;2022-10-16T16:18:18;1.52;;;1.20;;
15693;SDS011;7947;48.834;9.132;2022-10-16T16:21:25;2.35;;;1.20;;
15693;SDS011;7947;48.834;9.132;2022-10-16T16:24:32;1.92;;;1.20;;
15693;SDS011;7947;48.834;9.132;2022-10-16T16:27:36;1.10;;;1.00;;
15693;SDS011;7947;48.834;9.132;2022-10-16T16:30:41;1.13;;;0.93;;
15693;SDS011;7947;48.834;9.132;2022-10-16T16:33:47;1.50;;;1.15;;
15693;SDS011;7947;48.834;9.132;2022-10-16T16:37:08;2.15;;;1.08;;
15693;SDS011;7947;48.834;9.132;2022-10-16T16:40:55;1.20;;;0.90;;
15693;SDS011;7947;48.834;9.132;2022-10-16T16:44:08;1.75;;;1.40;;
15693;SDS011;7947;48.834;9.132;2022-10-16T16:47:28;2.13;;;1.05;;
15693;SDS011;7947;48.834;9.132;2022-10-16T16:55:16;1.00;;;0.80;;
15693;SDS011;7947;48.834;9.132;2022-10-16T16:58:26;2.00;;;1.23;;
15693;SDS011;7947;48.834;9.132;2022-10-16T17:01:33;3.25;;;1.45;;
15693;SDS011;7947;48.834;9.132;2022-10-16T17:04:41;2.00;;;1.23;;
15693;SDS011;7947;48.834;9.132;2022-10-16T17:07:52;7.97;;;1.42;;
15693;SDS011;7947;48.834;9.132;2022-10-16T17:11:02;1.60;;;1.23;;
15693;SDS011;7947;48.834;9.132;2022-10-16T17:14:21;2.28;;;1.10;;
15693;SDS011;7947;48.834;9.132;2022-10-16T17:17:32;1.75;;;1.33;;
15693;SDS011;7947;48.834;9.132;2022-10-16T17:20:39;2.53;;;1.40;;
15693;SDS011;7947;48.834;9.132;2022-10-16T17:23:47;1.98;;;1.35;;
15693;SDS011;7947;48.834;9.132;2022-10-16T17:26:58;1.50;;;1.33;;
15693;SDS011;7947;48.834;9.132;2022-10-16T17:30:08;1.80;;;1.15;;
15693;SDS011;7947;48.834;9.132;2022-10-16T17:33:16;1.50;;;1.40;;
15693;SDS011;7947;48.834;9.132;2022-10-16T17:36:42;1.42;;;1.15;;
15693;SDS011;7947;48.834;9.132;2022-10-16T17:40:00;1.50;;;1.40;;
15693;SDS011;7947;48.834;9.132;2022-10-16T17:43:18;1.85;;;1.40;;
15693;SDS011;7947;48.834;9.132;2022-10-16T17:46:39;2.60;;;1.70;;
15693;SDS011;7947;48.834;9.132;2022-10-16T17:49:43;2.30;;;1.30;;
15693;SDS011;7947;48.834;9.132;2022-10-16T17:53:06;4.40;;;1.75;;
15693;SDS011;7947;48.834;9.132;2022-10-16T17:56:12;6.60;;;1.80;;
15693;SDS011;7947;48.834;9.132;2022-10-16T17:59:30;1.92;;;1.55;;
15693;SDS011;7947;48.834;9.132;2022-10-16T18:02:35;3.10;;;1.75;;
15693;SDS011;7947;48.834;9.132;2022-10-16T18:05:47;2.95;;;2.00;;
15693;SDS011;7947;48.834;9.132;2022-10-16T18:09:01;3.53;;;1.58;;
15693;SDS011;7947;48.834;9.132;2022-10-16T18:12:24;4.55;;;1.67;;
15693;SDS011;7947;48.834;9.132;2022-10-16T18:15:33;2.05;;;1.70;;
15693;SDS011;7947;48.834;9.132;2022-10-16T18:18:45;2.38;;;1.80;;
15693;SDS011;7947;48.834;9.132;2022-10-16T18:21:56;2.90;;;1.85;;
15693;SDS011;7947;48.834;9.132;2022-10-16T18:25:03;2.55;;;1.95;;
15693;SDS011;7947;48.834;9.132;2022-10-16T18:28:12;4.05;;;2.28;;
15693;SDS011;7947;48.834;9.132;2022-10-16T18:31:21;4.93;;;2.40;;
15693;SDS011;7947;48.834;9.132;2022-10-16T18:34:27;3.45;;;2.67;;
15693;SDS011;7947;48.834;9.132;2022-10-16T18:37:36;3.65;;;2.13;;
15693;SDS011;7947;48.834;9.132;2022-10-16T18:40:44;2.20;;;1.70;;
15693;SDS011;7947;48.834;9.132;2022-10-16T18:43:54;2.35;;;1.90;;
15693;SDS011;7947;48.834;9.132;2022-10-16T18:47:03;4.18;;;2.67;;
15693;SDS011;7947;48.834;9.132;2022-10-16T18:50:10;4.57;;;2.10;;
15693;SDS011;7947;48.834;9.132;2022-10-16T18:53:17;2.78;;;1.88;;
15693;SDS011;7947;48.834;9.132;2022-10-16T18:56:28;2.80;;;2.17;;
15693;SDS011;7947;48.834;9.132;2022-10-16T18:59:36;1.83;;;1.73;;
15693;SDS011;7947;48.834;9.132;2022-10-16T19:02:52;2.30;;;1.70;;
15693;SDS011;7947;48.834;9.132;2022-10-16T19:06:00;3.40;;;1.90;;
15693;SDS011;7947;48.834;9.132;2022-10-16T19:09:09;2.28;;;2.08;;
15693;SDS011;7947;48.834;9.132;2022-10-16T19:12:52;3.50;;;1.60;;